Create Custom Reports and Graphics: Custom Report

Siberia 8700'

Squaw Valley

5/24/19 2:45 PM (-07:00)
Updated Every 15 Minutes
Temp 35.6 °F   2.8
RH 100 %   0
Wet Bulb 35.6 °F   2.8
Dew Pt 35.6 °F   2.8
Wind Dir W | 264 °
Wind Spd 22.2 mph   12.3
Wind Gust 29.1 mph   15.5
WindChill 25.4 °F   0.8
Daily Min Temp 31.5 °F   1.6
Daily Max Temp 46.4 °F   13.5

Last 24 Hours

Squaw-Siberia 8700'

Hourly Data | America/Los_Angeles
as of 5/24/19 2:52 PM PDT
Date & Time Temp (°F) RH (%) Dew Pt (°F) Wet Bulb (°F) Wind Dir (°) Wind Spd (mph) Wind Gust (mph) WindChill (°F) Daily Min Temp (°F) Daily Max Temp (°F)
5/24/19 - 1400 41.4 75 34.1 37.8 WNW | 299 3.7 15.6 39.7 31.5 46.4
5/24/19 - 1300 42.4 66 31.7 37.2 WNW | 298 2.9 12.0 39.7 31.5 46.4
5/24/19 - 1200 40.5 68 30.7 35.9 ENE | 65 1.1 8.4 40.3 31.5 45.1
5/24/19 - 1100 39.1 73 31.3 35.4 ENE | 61 6.9 13.0 32.5 31.5 39.1
5/24/19 - 1000 36.5 90 33.8 35.2 NE | 53 13.1 19.3 26.7 31.5 36.6
5/24/19 - 0900 34.2 97 33.4 33.8 NE | 49 18.1 22.1 22.7 31.5 34.7
5/24/19 - 0800 33.0 100 32.9 32.9 NE | 50 12.9 19.5 23.4 31.5 33.6
5/24/19 - 0700 32.7 100 32.6 32.7 NE | 38 12.0 16.4 23.7 31.5 33.6
5/24/19 - 0600 32.3 98 31.7 32.0 NE | 35 9.5 15.1 25.0 31.5 33.6
5/24/19 - 0500 33.0 94 31.6 32.4 NE | 39 9.3 15.4 25.2 31.5 33.6
5/24/19 - 0400 32.8 94 31.2 32.0 NNE | 32 12.3 19.4 24.1 31.5 33.6
5/24/19 - 0300 32.5 93 30.7 31.7 NE | 37 7.6 14.5 26.5 31.5 32.9
5/24/19 - 0200 31.9 97 31.2 31.6 NE | 42 11.4 18.1 23.4 31.5 32.6
5/24/19 - 0100 32.3 93 30.5 31.5 NE | 54 9.3 14.1 24.3 31.5 32.6
5/24/19 - 0000 32.0 100 31.9 32.0 ENE | 58 8.2 12.5 24.8 30.0 33.9
5/23/19 - 2300 31.9 100 31.9 31.9 NE | 54 11.6 14.6 22.9 30.0 33.9
5/23/19 - 2200 32.2 100 32.2 32.2 NE | 47 15.7 24.3 21.6 30.0 33.9
5/23/19 - 2100 32.0 100 32.0 32.0 NE | 45 15.8 23.2 21.5 30.0 33.9
5/23/19 - 2000 32.2 100 32.2 32.2 NE | 47 8.3 15.8 25.2 30.0 33.9
5/23/19 - 1900 32.4 100 32.4 32.4 NE | 50 8.6 20.2 26.0 30.0 33.9
5/23/19 - 1800 32.5 100 32.5 32.5 NE | 36 8.3 21.5 26.3 30.0 33.9
5/23/19 - 1700 32.1 100 32.1 32.1 NE | 44 21.0 27.8 19.9 30.0 33.9
5/23/19 - 1600 32.6 100 32.6 32.6 NE | 45 13.1 24.2 23.8 30.0 33.9
5/23/19 - 1500 33.1 100 33.1 33.1 NE | 44 11.3 17.8 24.0 30.0 33.1
5/23/19 - 1400 32.2 100 32.2 32.2 NE | 46 14.7 20.3 22.1 30.0 32.5
Max 42.4 100 34.1 37.8 - 21.0 27.8 40.3 31.5 46.4
Avg 34.0 93 32.1 33.1 - 10.7 17.8 26.2 - -
Min 31.9 66 30.5 31.5 - 1.1 8.4 19.9 30.0 32.5

Last 30 Days

Squaw-Siberia 8700'

Daily Data | America/Los_Angeles
as of 5/24/19 2:52 PM PDT
Date Daily Max Temp (°F) Max Temp Time Daily Min Temp (°F) Min Temp Time Wind Spd (mph) Daily Max Wind (mph) Max Wind Time Max Wind Dir (°) Wet Bulb (°F) WetB Hrs <28F (hrs)
5/23/19 33.9 1518 30.0 0002 18.5 57.6 0022 NE | 54 31.4 0.0
5/22/19 31.8 1730 22.7 0352 27.4 53.8 1918 NE | 39 27.4 10.8
5/21/19 27.8 1430 21.1 0652 33.8 97.4 0355 SW | 223 23.8 24.0
5/20/19 29.3 0828 19.6 0045 26.5 69.2 2335 SSW | 198 24.9 22.0
5/19/19 27.7 1432 19.3 2229 29.5 78.4 0541 SW | 236 23.2 24.0
5/18/19 31.2 1237 24.2 1925 22.8 60.2 2017 S | 171 26.6 18.8
5/17/19 31.8 1522 21.2 0311 24.3 62.7 0129 W | 278 26.5 14.4
5/16/19 25.4 1303 20.9 0723 51.2 95.8 1551 S | 186 23.1 16.6
5/14/19 46.1 1529 36.8 2358 23.9 52.9 1240 SW | 214 34.6 0.0
5/10/19 45.2 1744 27.1 0617 29.6 79.9 0939 ENE | 60 29.8 6.7
5/9/19 46.6 1334 32.8 2352 19.8 58.9 2344 ENE | 68 33.4 0.0
5/8/19 52.0 1650 36.7 0450 12.8 33.4 0406 NE | 50 36.9 0.0
5/7/19 50.7 1459 38.5 0613 12.0 34.4 1711 WSW | 239 37.6 0.0
5/6/19 50.0 1324 36.1 2111 16.5 44.6 2134 ENE | 70 36.4 0.0
5/5/19 53.9 1450 36.8 1919 9.2 34.3 1804 NW | 309 36.3 0.0
5/4/19 50.5 1645 38.0 0358 8.6 26.2 1545 SSW | 205 34.4 0.0
5/3/19 48.0 1546 37.0 0407 8.6 24.9 1402 WSW | 242 35.0 0.0
5/2/19 46.7 1616 28.7 0326 8.4 27.8 1756 SW | 225 29.9 11.2
5/1/19 41.8 1501 21.7 0101 18.0 37.4 0822 ENE | 62 26.2 12.9
4/30/19 24.4 1735 21.9 2016 18.5 32.5 1952 NNE | 25 22.9 6.4
4/25/19 53.1 1343 43.0 2351 14.3 47.0 1803 SW | 216 39.8 0.0
4/24/19 49.0 2229 46.6 2126 4.3 8.4 2228 WSW | 248 40.8 0.0
Max 53.9 - 46.6 - 51.2 97.4 - - 40.8 24.0
Avg - - - - 19.9 - - - 30.9 -
Min 24.4 - 19.3 - 4.3 8.4 - - 22.9 0.0
Calm: 0.0%
Calm: 0.0%